This is the latest recevied weather packets stored in our database for station/object JE9BHE-13. If no packets are shown the sender has not sent any weather packets the latest 10 day(s).
| Time | Temp. | Humidity | Pressure | Rain* | Wind** | Luminosity | Snow |
|---|---|---|---|---|---|---|---|
| 1777520526 | 16.67° C | 74% | 1020.2 hPa | 0 mm | - | - | - |
| 1777519987 | 16.11° C | 74% | 1019.8 hPa | 0 mm | - | - | - |
| 1777519626 | 16.11° C | 77% | 1020 hPa | 0 mm | - | - | - |
| 1777517286 | 16.11° C | 73% | 1020.7 hPa | 0 mm | - | - | - |
| 1777516206 | 16.11° C | 72% | 1020.9 hPa | 0 mm | - | - | - |
| 1777514946 | 15° C | 75% | 1021.4 hPa | 0 mm | - | - | - |
| 1777514225 | 15° C | 71% | 1021.5 hPa | 0 mm | - | - | - |
| 1777513326 | 14.44° C | 73% | 1021.9 hPa | 0 mm | - | - | - |
| 1777512967 | 14.44° C | 74% | 1022.1 hPa | 0 mm | - | - | - |
| 1777510985 | 14.44° C | 78% | 1022.4 hPa | 0 mm | - | - | - |
| 1777509726 | 14.44° C | 78% | 1022.5 hPa | 0 mm | - | - | - |
| 1777502528 | 12.22° C | 89% | 1021.9 hPa | 0 mm | - | - | - |
| 1777502347 | 11.67° C | 89% | 1022 hPa | 0 mm | - | - | - |
| 1777500728 | 11.11° C | 93% | 1022 hPa | 0 mm | - | - | - |
| 1777500547 | 11.11° C | 93% | 1021.8 hPa | 0 mm | - | - | - |
| 1777499107 | 10.56° C | 95% | 1022.3 hPa | 0 mm | - | - | - |
| 1777497667 | 10.56° C | 94% | 1022 hPa | 0 mm | - | - | - |
| 1777497307 | 10.56° C | 94% | 1022.3 hPa | 0 mm | - | - | - |
| 1777495506 | 10° C | 94% | 1022.1 hPa | 0 mm | - | - | - |
| 1777494966 | 10° C | 95% | 1022 hPa | 0 mm | - | - | - |
| 1777494787 | 10° C | 95% | 1022.1 hPa | 0 mm | - | - | - |
| 1777492627 | 10° C | 95% | 1021.8 hPa | 0 mm | - | - | - |
| 1777491907 | 10° C | 94% | 1021.6 hPa | 0 mm | - | - | - |
| 1777491547 | 10° C | 94% | 1021.6 hPa | 0 mm | - | - | - |
| 1777490466 | 10° C | 95% | 1021.6 hPa | 0 mm | - | - | - |
* Rain latest hour (hover to see other rain measurements)
** Current wind speed in m/s (hover to see current wind gust speed)